sensor_id;sensor_type;location;lat;lon;timestamp;temperature;humidity
14119;DHT22;7138;49.246;9.100;2023-03-23T00:00:10;13.30;99.90
14119;DHT22;7138;49.246;9.100;2023-03-23T00:02:36;13.40;99.90
14119;DHT22;7138;49.246;9.100;2023-03-23T00:05:04;13.30;99.90
14119;DHT22;7138;49.246;9.100;2023-03-23T00:07:34;13.50;99.90
14119;DHT22;7138;49.246;9.100;2023-03-23T00:10:01;13.60;99.90
14119;DHT22;7138;49.246;9.100;2023-03-23T00:12:30;13.50;99.90
14119;DHT22;7138;49.246;9.100;2023-03-23T00:15:00;13.40;99.90
14119;DHT22;7138;49.246;9.100;2023-03-23T00:17:26;13.40;99.90
14119;DHT22;7138;49.246;9.100;2023-03-23T00:19:52;13.30;99.90
14119;DHT22;7138;49.246;9.100;2023-03-23T00:22:18;13.30;99.90
14119;DHT22;7138;49.246;9.100;2023-03-23T00:24:48;13.40;99.90
14119;DHT22;7138;49.246;9.100;2023-03-23T00:27:17;13.40;99.90
14119;DHT22;7138;49.246;9.100;2023-03-23T00:29:44;13.40;99.90
14119;DHT22;7138;49.246;9.100;2023-03-23T00:32:13;13.30;99.90
14119;DHT22;7138;49.246;9.100;2023-03-23T00:34:40;13.30;99.90
14119;DHT22;7138;49.246;9.100;2023-03-23T00:37:08;13.20;99.90
14119;DHT22;7138;49.246;9.100;2023-03-23T00:39:35;13.20;99.90
14119;DHT22;7138;49.246;9.100;2023-03-23T00:42:04;13.30;99.90
14119;DHT22;7138;49.246;9.100;2023-03-23T00:44:32;13.20;99.90
14119;DHT22;7138;49.246;9.100;2023-03-23T00:47:00;13.30;99.90
14119;DHT22;7138;49.246;9.100;2023-03-23T00:49:27;13.20;99.90
14119;DHT22;7138;49.246;9.100;2023-03-23T00:51:54;13.10;99.90
14119;DHT22;7138;49.246;9.100;2023-03-23T00:54:22;13.10;99.90
14119;DHT22;7138;49.246;9.100;2023-03-23T00:56:50;13.10;99.90
14119;DHT22;7138;49.246;9.100;2023-03-23T00:59:17;13.10;99.90
14119;DHT22;7138;49.246;9.100;2023-03-23T01:01:44;13.10;99.90
14119;DHT22;7138;49.246;9.100;2023-03-23T01:04:10;13.10;99.90
14119;DHT22;7138;49.246;9.100;2023-03-23T01:06:39;13.10;99.90
14119;DHT22;7138;49.246;9.100;2023-03-23T01:09:09;13.10;99.90
14119;DHT22;7138;49.246;9.100;2023-03-23T01:11:36;13.10;99.90
14119;DHT22;7138;49.246;9.100;2023-03-23T01:14:04;13.00;99.90
14119;DHT22;7138;49.246;9.100;2023-03-23T01:16:31;12.90;99.90
14119;DHT22;7138;49.246;9.100;2023-03-23T01:18:57;12.90;99.90
14119;DHT22;7138;49.246;9.100;2023-03-23T01:21:23;12.90;99.90
14119;DHT22;7138;49.246;9.100;2023-03-23T01:23:50;12.90;99.90
14119;DHT22;7138;49.246;9.100;2023-03-23T01:26:18;12.80;99.90
14119;DHT22;7138;49.246;9.100;2023-03-23T01:28:46;12.80;99.90
14119;DHT22;7138;49.246;9.100;2023-03-23T01:31:14;12.80;99.90
14119;DHT22;7138;49.246;9.100;2023-03-23T01:33:43;12.90;99.90
14119;DHT22;7138;49.246;9.100;2023-03-23T01:36:12;12.90;99.90
14119;DHT22;7138;49.246;9.100;2023-03-23T01:38:39;12.90;99.90
14119;DHT22;7138;49.246;9.100;2023-03-23T01:41:06;12.80;99.90
14119;DHT22;7138;49.246;9.100;2023-03-23T01:43:32;12.80;99.90
14119;DHT22;7138;49.246;9.100;2023-03-23T01:45:58;12.80;99.90
14119;DHT22;7138;49.246;9.100;2023-03-23T01:48:27;12.80;99.90
14119;DHT22;7138;49.246;9.100;2023-03-23T01:50:59;12.70;99.90
14119;DHT22;7138;49.246;9.100;2023-03-23T01:53:33;12.60;99.90
14119;DHT22;7138;49.246;9.100;2023-03-23T01:56:04;12.60;99.90
14119;DHT22;7138;49.246;9.100;2023-03-23T01:58:33;12.60;99.90
14119;DHT22;7138;49.246;9.100;2023-03-23T02:01:04;12.60;99.90
14119;DHT22;7138;49.246;9.100;2023-03-23T02:03:35;12.60;99.90
14119;DHT22;7138;49.246;9.100;2023-03-23T02:06:06;12.60;99.90
14119;DHT22;7138;49.246;9.100;2023-03-23T02:08:33;12.50;99.90
14119;DHT22;7138;49.246;9.100;2023-03-23T02:11:00;12.60;99.90
14119;DHT22;7138;49.246;9.100;2023-03-23T02:13:27;12.60;99.90
14119;DHT22;7138;49.246;9.100;2023-03-23T02:16:01;12.60;99.90
14119;DHT22;7138;49.246;9.100;2023-03-23T02:18:49;12.60;99.90
14119;DHT22;7138;49.246;9.100;2023-03-23T02:21:56;12.60;99.90
14119;DHT22;7138;49.246;9.100;2023-03-23T02:31:14;12.60;99.90
14119;DHT22;7138;49.246;9.100;2023-03-23T02:33:51;12.50;99.90
14119;DHT22;7138;49.246;9.100;2023-03-23T02:36:29;12.60;99.90
14119;DHT22;7138;49.246;9.100;2023-03-23T02:39:05;12.60;99.90
14119;DHT22;7138;49.246;9.100;2023-03-23T02:41:39;12.60;99.90
14119;DHT22;7138;49.246;9.100;2023-03-23T02:44:08;12.60;99.90
14119;DHT22;7138;49.246;9.100;2023-03-23T02:46:36;12.60;99.90
14119;DHT22;7138;49.246;9.100;2023-03-23T02:49:06;12.60;99.90
14119;DHT22;7138;49.246;9.100;2023-03-23T02:51:35;12.50;99.90
14119;DHT22;7138;49.246;9.100;2023-03-23T02:54:04;12.60;99.90
14119;DHT22;7138;49.246;9.100;2023-03-23T02:56:32;12.60;99.90
14119;DHT22;7138;49.246;9.100;2023-03-23T02:59:01;12.60;99.90
14119;DHT22;7138;49.246;9.100;2023-03-23T03:04:38;12.60;99.90
14119;DHT22;7138;49.246;9.100;2023-03-23T03:07:23;12.60;99.90
14119;DHT22;7138;49.246;9.100;2023-03-23T03:10:00;12.60;99.90
14119;DHT22;7138;49.246;9.100;2023-03-23T03:12:34;12.60;99.90
14119;DHT22;7138;49.246;9.100;2023-03-23T03:15:11;12.60;99.90
14119;DHT22;7138;49.246;9.100;2023-03-23T03:17:47;12.50;99.90
14119;DHT22;7138;49.246;9.100;2023-03-23T03:20:20;12.60;99.90
14119;DHT22;7138;49.246;9.100;2023-03-23T03:22:51;12.50;99.90
14119;DHT22;7138;49.246;9.100;2023-03-23T03:25:18;12.50;99.90
14119;DHT22;7138;49.246;9.100;2023-03-23T03:27:47;12.50;99.90
14119;DHT22;7138;49.246;9.100;2023-03-23T03:30:21;12.50;99.90
14119;DHT22;7138;49.246;9.100;2023-03-23T03:32:52;12.50;99.90
14119;DHT22;7138;49.246;9.100;2023-03-23T03:35:21;12.50;99.90
14119;DHT22;7138;49.246;9.100;2023-03-23T03:37:48;12.50;99.90
14119;DHT22;7138;49.246;9.100;2023-03-23T03:40:18;12.50;99.90
14119;DHT22;7138;49.246;9.100;2023-03-23T03:42:46;12.50;99.90
14119;DHT22;7138;49.246;9.100;2023-03-23T03:45:13;12.40;99.90
14119;DHT22;7138;49.246;9.100;2023-03-23T03:47:40;12.30;99.90
14119;DHT22;7138;49.246;9.100;2023-03-23T03:50:06;12.40;99.90
14119;DHT22;7138;49.246;9.100;2023-03-23T03:52:35;12.30;99.90
14119;DHT22;7138;49.246;9.100;2023-03-23T03:55:01;12.40;99.90
14119;DHT22;7138;49.246;9.100;2023-03-23T03:57:27;12.40;99.90
14119;DHT22;7138;49.246;9.100;2023-03-23T03:59:53;12.30;99.90
14119;DHT22;7138;49.246;9.100;2023-03-23T04:02:19;12.30;99.90
14119;DHT22;7138;49.246;9.100;2023-03-23T04:04:46;12.30;99.90
14119;DHT22;7138;49.246;9.100;2023-03-23T04:07:12;12.30;99.90
14119;DHT22;7138;49.246;9.100;2023-03-23T04:09:40;12.20;99.90
14119;DHT22;7138;49.246;9.100;2023-03-23T04:12:06;12.20;99.90
14119;DHT22;7138;49.246;9.100;2023-03-23T04:14:32;12.20;99.90
14119;DHT22;7138;49.246;9.100;2023-03-23T04:16:58;12.20;99.90
14119;DHT22;7138;49.246;9.100;2023-03-23T04:19:25;12.20;99.90
14119;DHT22;7138;49.246;9.100;2023-03-23T04:21:53;12.30;99.90
14119;DHT22;7138;49.246;9.100;2023-03-23T04:24:21;12.30;99.90
14119;DHT22;7138;49.246;9.100;2023-03-23T04:26:50;12.30;99.90
14119;DHT22;7138;49.246;9.100;2023-03-23T04:29:20;12.30;99.90
14119;DHT22;7138;49.246;9.100;2023-03-23T04:31:45;12.30;99.90
14119;DHT22;7138;49.246;9.100;2023-03-23T04:34:11;12.40;99.90
14119;DHT22;7138;49.246;9.100;2023-03-23T04:36:38;12.40;99.90
14119;DHT22;7138;49.246;9.100;2023-03-23T04:39:04;12.30;99.90
14119;DHT22;7138;49.246;9.100;2023-03-23T04:41:35;12.40;99.90
14119;DHT22;7138;49.246;9.100;2023-03-23T04:44:03;12.40;99.90
14119;DHT22;7138;49.246;9.100;2023-03-23T04:46:30;12.30;99.90
14119;DHT22;7138;49.246;9.100;2023-03-23T04:48:57;12.30;99.90
14119;DHT22;7138;49.246;9.100;2023-03-23T04:51:28;12.30;99.90
14119;DHT22;7138;49.246;9.100;2023-03-23T04:53:54;12.30;99.90
14119;DHT22;7138;49.246;9.100;2023-03-23T04:56:20;12.40;99.90
14119;DHT22;7138;49.246;9.100;2023-03-23T04:58:46;12.40;99.90
14119;DHT22;7138;49.246;9.100;2023-03-23T05:01:14;12.40;99.90
14119;DHT22;7138;49.246;9.100;2023-03-23T05:03:40;12.40;99.90
14119;DHT22;7138;49.246;9.100;2023-03-23T05:06:06;12.30;99.90
14119;DHT22;7138;49.246;9.100;2023-03-23T05:08:33;12.30;99.90
14119;DHT22;7138;49.246;9.100;2023-03-23T05:11:00;12.30;99.90
14119;DHT22;7138;49.246;9.100;2023-03-23T05:13:28;12.30;99.90
14119;DHT22;7138;49.246;9.100;2023-03-23T05:15:54;12.30;99.90
14119;DHT22;7138;49.246;9.100;2023-03-23T05:18:21;12.30;99.90
14119;DHT22;7138;49.246;9.100;2023-03-23T05:20:48;12.20;99.90
14119;DHT22;7138;49.246;9.100;2023-03-23T05:23:15;12.20;99.90
14119;DHT22;7138;49.246;9.100;2023-03-23T05:25:41;12.10;99.90
14119;DHT22;7138;49.246;9.100;2023-03-23T05:28:07;12.00;99.90
14119;DHT22;7138;49.246;9.100;2023-03-23T05:30:34;12.20;99.90
14119;DHT22;7138;49.246;9.100;2023-03-23T05:33:00;12.30;99.90
14119;DHT22;7138;49.246;9.100;2023-03-23T05:35:28;12.40;99.90
14119;DHT22;7138;49.246;9.100;2023-03-23T05:37:54;12.60;99.90
14119;DHT22;7138;49.246;9.100;2023-03-23T05:40:21;12.40;99.90
14119;DHT22;7138;49.246;9.100;2023-03-23T05:42:48;12.40;99.90
14119;DHT22;7138;49.246;9.100;2023-03-23T05:45:14;12.30;99.90
14119;DHT22;7138;49.246;9.100;2023-03-23T05:47:41;12.50;99.90
14119;DHT22;7138;49.246;9.100;2023-03-23T05:50:08;12.50;99.90
14119;DHT22;7138;49.246;9.100;2023-03-23T05:52:37;12.50;99.90
14119;DHT22;7138;49.246;9.100;2023-03-23T05:55:06;12.50;99.90
14119;DHT22;7138;49.246;9.100;2023-03-23T05:57:34;12.50;99.90
14119;DHT22;7138;49.246;9.100;2023-03-23T06:00:00;12.50;99.90
14119;DHT22;7138;49.246;9.100;2023-03-23T06:02:30;12.70;99.90
14119;DHT22;7138;49.246;9.100;2023-03-23T06:04:56;12.60;99.90
14119;DHT22;7138;49.246;9.100;2023-03-23T06:07:25;12.60;99.90
14119;DHT22;7138;49.246;9.100;2023-03-23T06:09:53;12.50;99.90
14119;DHT22;7138;49.246;9.100;2023-03-23T06:12:19;12.60;99.90
14119;DHT22;7138;49.246;9.100;2023-03-23T06:14:45;12.50;99.90
14119;DHT22;7138;49.246;9.100;2023-03-23T06:17:11;12.60;99.90
14119;DHT22;7138;49.246;9.100;2023-03-23T06:19:37;12.60;99.90
14119;DHT22;7138;49.246;9.100;2023-03-23T06:22:03;12.60;99.90
14119;DHT22;7138;49.246;9.100;2023-03-23T06:24:30;12.60;99.90
14119;DHT22;7138;49.246;9.100;2023-03-23T06:26:59;12.60;99.90
14119;DHT22;7138;49.246;9.100;2023-03-23T06:29:25;12.70;99.90
14119;DHT22;7138;49.246;9.100;2023-03-23T06:31:52;12.70;99.90
14119;DHT22;7138;49.246;9.100;2023-03-23T06:34:22;12.70;99.90
14119;DHT22;7138;49.246;9.100;2023-03-23T06:36:48;12.70;99.90
14119;DHT22;7138;49.246;9.100;2023-03-23T06:39:14;12.80;99.90
14119;DHT22;7138;49.246;9.100;2023-03-23T06:41:41;12.80;99.90
14119;DHT22;7138;49.246;9.100;2023-03-23T06:44:08;12.80;99.90
14119;DHT22;7138;49.246;9.100;2023-03-23T06:46:38;12.90;99.90
14119;DHT22;7138;49.246;9.100;2023-03-23T06:49:05;12.90;99.90
14119;DHT22;7138;49.246;9.100;2023-03-23T06:51:31;12.90;99.90
14119;DHT22;7138;49.246;9.100;2023-03-23T06:53:57;12.90;99.90
14119;DHT22;7138;49.246;9.100;2023-03-23T06:56:23;12.90;99.90
14119;DHT22;7138;49.246;9.100;2023-03-23T06:58:49;12.80;99.90
14119;DHT22;7138;49.246;9.100;2023-03-23T07:01:16;12.70;99.90
14119;DHT22;7138;49.246;9.100;2023-03-23T07:03:42;12.80;99.90
14119;DHT22;7138;49.246;9.100;2023-03-23T07:06:09;12.80;99.90
14119;DHT22;7138;49.246;9.100;2023-03-23T07:08:36;12.80;99.90
14119;DHT22;7138;49.246;9.100;2023-03-23T07:11:02;12.80;99.90
14119;DHT22;7138;49.246;9.100;2023-03-23T07:13:29;12.80;99.90
14119;DHT22;7138;49.246;9.100;2023-03-23T07:15:55;12.80;99.90
14119;DHT22;7138;49.246;9.100;2023-03-23T07:18:22;12.80;99.90
14119;DHT22;7138;49.246;9.100;2023-03-23T07:20:49;12.80;99.90
14119;DHT22;7138;49.246;9.100;2023-03-23T07:23:15;12.80;99.90
14119;DHT22;7138;49.246;9.100;2023-03-23T07:25:42;12.80;99.90
14119;DHT22;7138;49.246;9.100;2023-03-23T07:28:09;12.80;99.90
14119;DHT22;7138;49.246;9.100;2023-03-23T07:30:35;12.80;99.90
14119;DHT22;7138;49.246;9.100;2023-03-23T07:33:04;12.90;99.90
14119;DHT22;7138;49.246;9.100;2023-03-23T07:35:33;12.90;99.90
14119;DHT22;7138;49.246;9.100;2023-03-23T07:37:59;12.90;99.90
14119;DHT22;7138;49.246;9.100;2023-03-23T07:40:25;13.00;99.90
14119;DHT22;7138;49.246;9.100;2023-03-23T07:42:53;13.00;99.90
14119;DHT22;7138;49.246;9.100;2023-03-23T07:45:21;13.10;99.90
14119;DHT22;7138;49.246;9.100;2023-03-23T07:47:47;13.10;99.90
14119;DHT22;7138;49.246;9.100;2023-03-23T07:50:13;13.10;99.90
14119;DHT22;7138;49.246;9.100;2023-03-23T07:52:40;13.10;99.90
14119;DHT22;7138;49.246;9.100;2023-03-23T07:55:08;13.10;99.90
14119;DHT22;7138;49.246;9.100;2023-03-23T07:57:43;13.00;99.90
14119;DHT22;7138;49.246;9.100;2023-03-23T08:00:10;13.00;99.90
14119;DHT22;7138;49.246;9.100;2023-03-23T08:02:39;12.90;99.90
14119;DHT22;7138;49.246;9.100;2023-03-23T08:05:06;12.90;99.90
14119;DHT22;7138;49.246;9.100;2023-03-23T08:07:33;12.80;99.90
14119;DHT22;7138;49.246;9.100;2023-03-23T08:10:01;12.80;99.90
14119;DHT22;7138;49.246;9.100;2023-03-23T08:12:27;12.80;99.90
14119;DHT22;7138;49.246;9.100;2023-03-23T08:14:53;12.70;99.90
14119;DHT22;7138;49.246;9.100;2023-03-23T08:17:19;12.70;99.90
14119;DHT22;7138;49.246;9.100;2023-03-23T08:19:45;12.60;99.90
14119;DHT22;7138;49.246;9.100;2023-03-23T08:22:12;12.60;99.90
14119;DHT22;7138;49.246;9.100;2023-03-23T08:24:38;12.50;99.90
14119;DHT22;7138;49.246;9.100;2023-03-23T08:27:05;12.50;99.90
14119;DHT22;7138;49.246;9.100;2023-03-23T08:29:32;12.50;99.90
14119;DHT22;7138;49.246;9.100;2023-03-23T08:31:58;12.40;99.90
14119;DHT22;7138;49.246;9.100;2023-03-23T08:34:24;12.30;99.90
14119;DHT22;7138;49.246;9.100;2023-03-23T08:36:51;12.30;99.90
14119;DHT22;7138;49.246;9.100;2023-03-23T08:39:17;12.40;99.90
14119;DHT22;7138;49.246;9.100;2023-03-23T08:41:43;12.40;99.90
14119;DHT22;7138;49.246;9.100;2023-03-23T08:44:11;12.60;99.90
14119;DHT22;7138;49.246;9.100;2023-03-23T08:46:38;12.50;99.90
14119;DHT22;7138;49.246;9.100;2023-03-23T08:49:04;12.60;99.90
14119;DHT22;7138;49.246;9.100;2023-03-23T08:51:31;12.60;99.90
14119;DHT22;7138;49.246;9.100;2023-03-23T08:53:57;12.70;99.90
14119;DHT22;7138;49.246;9.100;2023-03-23T08:56:24;12.80;99.90
14119;DHT22;7138;49.246;9.100;2023-03-23T08:58:50;12.80;99.90
14119;DHT22;7138;49.246;9.100;2023-03-23T09:01:17;12.90;99.90
14119;DHT22;7138;49.246;9.100;2023-03-23T09:03:43;12.90;99.90
14119;DHT22;7138;49.246;9.100;2023-03-23T09:06:09;12.90;99.90
14119;DHT22;7138;49.246;9.100;2023-03-23T09:08:38;12.90;99.90
14119;DHT22;7138;49.246;9.100;2023-03-23T09:11:08;12.90;99.90
14119;DHT22;7138;49.246;9.100;2023-03-23T09:13:35;12.90;99.90
14119;DHT22;7138;49.246;9.100;2023-03-23T09:16:02;12.90;99.90
14119;DHT22;7138;49.246;9.100;2023-03-23T09:18:31;12.90;99.90
14119;DHT22;7138;49.246;9.100;2023-03-23T09:21:01;13.00;99.90
14119;DHT22;7138;49.246;9.100;2023-03-23T09:23:28;13.10;99.90
14119;DHT22;7138;49.246;9.100;2023-03-23T09:25:55;13.20;99.90
14119;DHT22;7138;49.246;9.100;2023-03-23T09:28:21;13.20;99.90
14119;DHT22;7138;49.246;9.100;2023-03-23T09:30:47;13.30;99.90
14119;DHT22;7138;49.246;9.100;2023-03-23T09:33:15;13.20;99.90
14119;DHT22;7138;49.246;9.100;2023-03-23T09:35:42;13.10;99.90
14119;DHT22;7138;49.246;9.100;2023-03-23T09:38:09;13.10;99.90
14119;DHT22;7138;49.246;9.100;2023-03-23T09:40:42;13.20;99.90
14119;DHT22;7138;49.246;9.100;2023-03-23T09:43:38;13.20;99.90
14119;DHT22;7138;49.246;9.100;2023-03-23T09:46:23;13.20;99.90
14119;DHT22;7138;49.246;9.100;2023-03-23T09:48:58;13.30;99.90
14119;DHT22;7138;49.246;9.100;2023-03-23T09:51:34;13.20;99.90
14119;DHT22;7138;49.246;9.100;2023-03-23T09:54:13;13.20;99.90
14119;DHT22;7138;49.246;9.100;2023-03-23T09:56:44;13.00;99.90
14119;DHT22;7138;49.246;9.100;2023-03-23T09:59:16;12.90;99.90
14119;DHT22;7138;49.246;9.100;2023-03-23T10:01:47;12.60;99.90
14119;DHT22;7138;49.246;9.100;2023-03-23T10:04:24;12.40;99.90
14119;DHT22;7138;49.246;9.100;2023-03-23T10:07:05;12.40;99.90
14119;DHT22;7138;49.246;9.100;2023-03-23T10:09:36;12.20;99.90
14119;DHT22;7138;49.246;9.100;2023-03-23T10:12:10;12.00;99.90
14119;DHT22;7138;49.246;9.100;2023-03-23T10:14:54;11.90;99.90
14119;DHT22;7138;49.246;9.100;2023-03-23T10:17:33;11.90;99.90
14119;DHT22;7138;49.246;9.100;2023-03-23T10:20:23;11.80;99.90
14119;DHT22;7138;49.246;9.100;2023-03-23T10:23:04;11.80;99.90
14119;DHT22;7138;49.246;9.100;2023-03-23T10:25:41;11.70;99.90
14119;DHT22;7138;49.246;9.100;2023-03-23T10:28:34;11.70;99.90
14119;DHT22;7138;49.246;9.100;2023-03-23T10:31:02;11.80;99.90
14119;DHT22;7138;49.246;9.100;2023-03-23T10:33:34;11.80;99.90
14119;DHT22;7138;49.246;9.100;2023-03-23T10:36:07;11.80;99.90
14119;DHT22;7138;49.246;9.100;2023-03-23T10:38:43;11.80;99.90
14119;DHT22;7138;49.246;9.100;2023-03-23T10:41:12;11.80;99.90
14119;DHT22;7138;49.246;9.100;2023-03-23T10:43:40;11.80;99.90
14119;DHT22;7138;49.246;9.100;2023-03-23T10:46:19;11.90;99.90
14119;DHT22;7138;49.246;9.100;2023-03-23T10:48:52;11.80;99.90
14119;DHT22;7138;49.246;9.100;2023-03-23T10:51:24;11.80;99.90
14119;DHT22;7138;49.246;9.100;2023-03-23T10:54:00;11.90;99.90
14119;DHT22;7138;49.246;9.100;2023-03-23T10:56:35;12.00;99.90
14119;DHT22;7138;49.246;9.100;2023-03-23T10:59:12;11.90;99.90
14119;DHT22;7138;49.246;9.100;2023-03-23T11:01:43;11.80;99.90
14119;DHT22;7138;49.246;9.100;2023-03-23T11:04:12;11.80;99.90
14119;DHT22;7138;49.246;9.100;2023-03-23T11:06:44;11.90;99.90
14119;DHT22;7138;49.246;9.100;2023-03-23T11:09:16;12.00;99.90
14119;DHT22;7138;49.246;9.100;2023-03-23T11:11:48;12.10;99.90
14119;DHT22;7138;49.246;9.100;2023-03-23T11:14:17;12.20;99.90
14119;DHT22;7138;49.246;9.100;2023-03-23T11:16:49;12.50;99.90
14119;DHT22;7138;49.246;9.100;2023-03-23T11:19:22;12.60;99.90
14119;DHT22;7138;49.246;9.100;2023-03-23T11:21:51;12.60;99.90
14119;DHT22;7138;49.246;9.100;2023-03-23T11:24:23;12.60;99.90
14119;DHT22;7138;49.246;9.100;2023-03-23T11:26:50;12.60;99.90
14119;DHT22;7138;49.246;9.100;2023-03-23T11:29:20;12.50;99.90
14119;DHT22;7138;49.246;9.100;2023-03-23T11:31:50;12.50;99.90
14119;DHT22;7138;49.246;9.100;2023-03-23T11:34:21;12.50;99.90
14119;DHT22;7138;49.246;9.100;2023-03-23T11:36:51;12.40;99.90
14119;DHT22;7138;49.246;9.100;2023-03-23T11:39:24;12.50;99.90
14119;DHT22;7138;49.246;9.100;2023-03-23T11:41:52;12.50;99.90
14119;DHT22;7138;49.246;9.100;2023-03-23T11:44:19;12.60;99.90
14119;DHT22;7138;49.246;9.100;2023-03-23T11:46:55;12.60;99.90
14119;DHT22;7138;49.246;9.100;2023-03-23T11:49:35;12.80;99.90
14119;DHT22;7138;49.246;9.100;2023-03-23T11:52:13;12.70;99.90
14119;DHT22;7138;49.246;9.100;2023-03-23T11:54:56;12.70;99.90
14119;DHT22;7138;49.246;9.100;2023-03-23T11:57:29;12.80;99.90
14119;DHT22;7138;49.246;9.100;2023-03-23T11:59:56;12.80;99.90
14119;DHT22;7138;49.246;9.100;2023-03-23T12:05:47;12.70;99.90
14119;DHT22;7138;49.246;9.100;2023-03-23T12:08:29;12.60;99.90
14119;DHT22;7138;49.246;9.100;2023-03-23T12:11:18;12.70;99.90
14119;DHT22;7138;49.246;9.100;2023-03-23T12:13:56;12.90;99.90
14119;DHT22;7138;49.246;9.100;2023-03-23T12:16:45;12.90;99.90
14119;DHT22;7138;49.246;9.100;2023-03-23T12:19:24;13.00;99.90
14119;DHT22;7138;49.246;9.100;2023-03-23T12:22:03;13.20;99.90
14119;DHT22;7138;49.246;9.100;2023-03-23T12:24:46;13.20;99.90
14119;DHT22;7138;49.246;9.100;2023-03-23T12:27:28;13.20;99.90
14119;DHT22;7138;49.246;9.100;2023-03-23T12:30:19;13.20;99.90
14119;DHT22;7138;49.246;9.100;2023-03-23T12:32:58;13.10;99.90
14119;DHT22;7138;49.246;9.100;2023-03-23T12:35:41;13.10;99.90
14119;DHT22;7138;49.246;9.100;2023-03-23T12:38:29;13.10;99.90
14119;DHT22;7138;49.246;9.100;2023-03-23T12:41:11;13.20;99.90
14119;DHT22;7138;49.246;9.100;2023-03-23T12:43:48;13.20;99.90
14119;DHT22;7138;49.246;9.100;2023-03-23T12:46:33;13.30;99.90
14119;DHT22;7138;49.246;9.100;2023-03-23T12:49:14;13.30;99.90
14119;DHT22;7138;49.246;9.100;2023-03-23T12:51:49;13.30;99.90
14119;DHT22;7138;49.246;9.100;2023-03-23T12:54:24;13.20;99.90
14119;DHT22;7138;49.246;9.100;2023-03-23T12:57:00;13.20;99.90
14119;DHT22;7138;49.246;9.100;2023-03-23T12:59:36;13.10;99.90
14119;DHT22;7138;49.246;9.100;2023-03-23T13:02:15;13.10;99.90
14119;DHT22;7138;49.246;9.100;2023-03-23T13:04:52;13.20;99.90
14119;DHT22;7138;49.246;9.100;2023-03-23T13:07:28;13.20;99.90
14119;DHT22;7138;49.246;9.100;2023-03-23T13:10:03;13.20;99.90
14119;DHT22;7138;49.246;9.100;2023-03-23T13:12:35;13.20;99.90
14119;DHT22;7138;49.246;9.100;2023-03-23T13:15:08;13.30;99.90
14119;DHT22;7138;49.246;9.100;2023-03-23T13:17:51;13.30;99.90
14119;DHT22;7138;49.246;9.100;2023-03-23T13:20:46;13.50;99.90
14119;DHT22;7138;49.246;9.100;2023-03-23T13:23:22;13.50;99.90
14119;DHT22;7138;49.246;9.100;2023-03-23T13:25:56;13.40;99.90
14119;DHT22;7138;49.246;9.100;2023-03-23T13:28:27;13.40;99.90
14119;DHT22;7138;49.246;9.100;2023-03-23T13:30:58;13.40;99.90
14119;DHT22;7138;49.246;9.100;2023-03-23T13:33:29;13.30;99.90
14119;DHT22;7138;49.246;9.100;2023-03-23T13:36:01;13.30;99.90
14119;DHT22;7138;49.246;9.100;2023-03-23T13:38:31;13.30;99.90
14119;DHT22;7138;49.246;9.100;2023-03-23T13:40:57;13.40;99.90
14119;DHT22;7138;49.246;9.100;2023-03-23T13:43:33;13.60;99.90
14119;DHT22;7138;49.246;9.100;2023-03-23T13:46:24;13.90;99.90
14119;DHT22;7138;49.246;9.100;2023-03-23T13:49:14;13.90;99.90
14119;DHT22;7138;49.246;9.100;2023-03-23T13:52:14;14.10;99.90
14119;DHT22;7138;49.246;9.100;2023-03-23T13:54:44;14.10;99.90
14119;DHT22;7138;49.246;9.100;2023-03-23T13:57:35;14.30;99.90
14119;DHT22;7138;49.246;9.100;2023-03-23T14:00:24;14.30;99.90
14119;DHT22;7138;49.246;9.100;2023-03-23T14:03:01;14.40;99.90
14119;DHT22;7138;49.246;9.100;2023-03-23T14:05:36;14.30;99.90
14119;DHT22;7138;49.246;9.100;2023-03-23T14:08:12;14.10;99.90
14119;DHT22;7138;49.246;9.100;2023-03-23T14:10:43;14.00;99.90
14119;DHT22;7138;49.246;9.100;2023-03-23T14:13:17;14.00;99.90
14119;DHT22;7138;49.246;9.100;2023-03-23T14:15:56;13.90;99.90
14119;DHT22;7138;49.246;9.100;2023-03-23T14:18:29;13.90;99.90
14119;DHT22;7138;49.246;9.100;2023-03-23T14:21:00;13.90;99.90
14119;DHT22;7138;49.246;9.100;2023-03-23T14:23:27;13.90;99.90
14119;DHT22;7138;49.246;9.100;2023-03-23T14:25:59;13.80;99.90
14119;DHT22;7138;49.246;9.100;2023-03-23T14:28:39;13.80;99.90
14119;DHT22;7138;49.246;9.100;2023-03-23T14:31:15;13.80;99.90
14119;DHT22;7138;49.246;9.100;2023-03-23T14:33:45;13.80;99.90
14119;DHT22;7138;49.246;9.100;2023-03-23T14:36:13;13.70;99.90
14119;DHT22;7138;49.246;9.100;2023-03-23T14:38:39;13.70;99.90
14119;DHT22;7138;49.246;9.100;2023-03-23T14:41:06;13.70;99.90
14119;DHT22;7138;49.246;9.100;2023-03-23T14:43:37;13.60;99.90
14119;DHT22;7138;49.246;9.100;2023-03-23T14:46:07;13.70;99.90
14119;DHT22;7138;49.246;9.100;2023-03-23T14:48:35;13.60;99.90
14119;DHT22;7138;49.246;9.100;2023-03-23T14:51:04;13.60;99.90
14119;DHT22;7138;49.246;9.100;2023-03-23T14:53:35;13.60;99.90
14119;DHT22;7138;49.246;9.100;2023-03-23T14:56:06;13.60;99.90
14119;DHT22;7138;49.246;9.100;2023-03-23T14:58:36;13.50;99.90
14119;DHT22;7138;49.246;9.100;2023-03-23T15:01:06;13.50;99.90
14119;DHT22;7138;49.246;9.100;2023-03-23T15:03:37;13.50;99.90
14119;DHT22;7138;49.246;9.100;2023-03-23T15:06:12;13.60;99.90
14119;DHT22;7138;49.246;9.100;2023-03-23T15:08:41;13.50;99.90
14119;DHT22;7138;49.246;9.100;2023-03-23T15:11:11;13.60;99.90
14119;DHT22;7138;49.246;9.100;2023-03-23T15:13:47;13.60;99.90
14119;DHT22;7138;49.246;9.100;2023-03-23T15:16:19;13.50;99.90
14119;DHT22;7138;49.246;9.100;2023-03-23T15:18:50;13.50;99.90
14119;DHT22;7138;49.246;9.100;2023-03-23T15:21:27;13.50;99.90
14119;DHT22;7138;49.246;9.100;2023-03-23T15:23:54;13.50;99.90
14119;DHT22;7138;49.246;9.100;2023-03-23T15:26:30;13.50;99.90
14119;DHT22;7138;49.246;9.100;2023-03-23T15:29:13;13.50;99.90
14119;DHT22;7138;49.246;9.100;2023-03-23T15:31:44;13.50;99.90
14119;DHT22;7138;49.246;9.100;2023-03-23T15:34:24;13.50;99.90
14119;DHT22;7138;49.246;9.100;2023-03-23T15:37:00;13.50;99.90
14119;DHT22;7138;49.246;9.100;2023-03-23T15:39:27;13.40;99.90
14119;DHT22;7138;49.246;9.100;2023-03-23T15:41:56;13.50;99.90
14119;DHT22;7138;49.246;9.100;2023-03-23T15:44:26;13.50;99.90
14119;DHT22;7138;49.246;9.100;2023-03-23T15:47:04;13.50;99.90
14119;DHT22;7138;49.246;9.100;2023-03-23T15:49:39;13.50;99.90
14119;DHT22;7138;49.246;9.100;2023-03-23T15:52:09;13.50;99.90
14119;DHT22;7138;49.246;9.100;2023-03-23T15:54:37;13.50;99.90
14119;DHT22;7138;49.246;9.100;2023-03-23T15:57:03;13.50;99.90
14119;DHT22;7138;49.246;9.100;2023-03-23T15:59:29;13.50;99.90
14119;DHT22;7138;49.246;9.100;2023-03-23T16:01:56;13.50;99.90
14119;DHT22;7138;49.246;9.100;2023-03-23T16:04:22;13.60;99.90
14119;DHT22;7138;49.246;9.100;2023-03-23T16:06:49;13.60;99.90
14119;DHT22;7138;49.246;9.100;2023-03-23T16:09:19;13.60;99.90
14119;DHT22;7138;49.246;9.100;2023-03-23T16:11:45;13.50;99.90
14119;DHT22;7138;49.246;9.100;2023-03-23T16:14:12;13.50;99.90
14119;DHT22;7138;49.246;9.100;2023-03-23T16:16:40;13.50;99.90
14119;DHT22;7138;49.246;9.100;2023-03-23T16:19:10;13.40;99.90